首页
METAR-TAF:

METAR-TAF

机场 :

特雷維索, 意大利

纬度: 45-39N, 经度: 012-11E, 海拔: 18米

当前天气观测

该预报发布于22分钟前的15:50 UTC
风速9节,风向
温度 8°C
湿度 53%
气压 1042 hPa
能见度10公里或以上
1500米以下无云,无积雨云

METAR: LIPH 201550Z 08009KT CAVOK 08/M01 Q1042

时间: 17:12 (16:12 UTC)

预报

该预报发布于5小时和12分钟前的11:00 UTC
预报有效从20日的 12点(UTC)到 21日的 12点(UTC)
风速5节,风向
能见度10公里或以上
1500米以下无云,无积雨云

TAF: LIPH 201100Z 2012/2112 01005KT CAVOK

超过4000个机场的气象观测和天气预报(METAR&TAF报告)。

可查询的气象台以黄色和红色小点在地图上表示。

将鼠标移到小点上方,可查看气象台名称。

然后点击查看天气观测和预报。

如需切换地图:点击带黑十字的绿色按钮放大地图;点击带横线的绿色按钮缩小地图;或者点击绿色箭头查看邻近地区的地图。


METAR-TAF: